sensor_id;sensor_type;location;lat;lon;timestamp;P1;durP1;ratioP1;P2;durP2;ratioP2
74369;SDS011;62805;44.644;10.942;2022-08-11T00:00:20;5.50;;;1.67;;
74369;SDS011;62805;44.644;10.942;2022-08-11T00:02:54;5.22;;;1.77;;
74369;SDS011;62805;44.644;10.942;2022-08-11T00:05:20;9.60;;;1.83;;
74369;SDS011;62805;44.644;10.942;2022-08-11T00:07:55;5.20;;;1.65;;
74369;SDS011;62805;44.644;10.942;2022-08-11T00:10:26;4.43;;;1.73;;
74369;SDS011;62805;44.644;10.942;2022-08-11T00:12:53;4.88;;;1.92;;
74369;SDS011;62805;44.644;10.942;2022-08-11T00:15:25;2.65;;;1.67;;
74369;SDS011;62805;44.644;10.942;2022-08-11T00:17:59;8.18;;;1.80;;
74369;SDS011;62805;44.644;10.942;2022-08-11T00:20:31;3.50;;;1.55;;
74369;SDS011;62805;44.644;10.942;2022-08-11T00:25:28;3.70;;;1.67;;
74369;SDS011;62805;44.644;10.942;2022-08-11T00:27:53;4.63;;;1.75;;
74369;SDS011;62805;44.644;10.942;2022-08-11T00:30:19;5.13;;;1.85;;
74369;SDS011;62805;44.644;10.942;2022-08-11T00:32:51;3.40;;;1.73;;
74369;SDS011;62805;44.644;10.942;2022-08-11T00:35:19;5.32;;;1.80;;
74369;SDS011;62805;44.644;10.942;2022-08-11T00:37:50;5.35;;;1.67;;
74369;SDS011;62805;44.644;10.942;2022-08-11T00:40:32;5.78;;;1.85;;
74369;SDS011;62805;44.644;10.942;2022-08-11T00:45:59;5.40;;;1.90;;
74369;SDS011;62805;44.644;10.942;2022-08-11T00:48:46;6.38;;;1.88;;
74369;SDS011;62805;44.644;10.942;2022-08-11T01:13:31;3.42;;;1.92;;
74369;SDS011;62805;44.644;10.942;2022-08-11T01:18:54;4.20;;;1.75;;
74369;SDS011;62805;44.644;10.942;2022-08-11T01:52:44;3.78;;;1.85;;
74369;SDS011;62805;44.644;10.942;2022-08-11T01:58:21;3.30;;;1.80;;
74369;SDS011;62805;44.644;10.942;2022-08-11T02:06:47;4.72;;;1.75;;
74369;SDS011;62805;44.644;10.942;2022-08-11T02:12:14;5.75;;;2.10;;
74369;SDS011;62805;44.644;10.942;2022-08-11T02:17:18;4.43;;;1.83;;
74369;SDS011;62805;44.644;10.942;2022-08-11T02:25:58;6.05;;;1.70;;
74369;SDS011;62805;44.644;10.942;2022-08-11T02:28:50;4.28;;;1.75;;
74369;SDS011;62805;44.644;10.942;2022-08-11T02:31:24;5.72;;;1.83;;
74369;SDS011;62805;44.644;10.942;2022-08-11T02:36:44;5.53;;;2.60;;
74369;SDS011;62805;44.644;10.942;2022-08-11T02:39:16;3.83;;;1.95;;
74369;SDS011;62805;44.644;10.942;2022-08-11T02:53:53;4.82;;;2.90;;
74369;SDS011;62805;44.644;10.942;2022-08-11T03:05:25;8.23;;;5.13;;
74369;SDS011;62805;44.644;10.942;2022-08-11T03:14:26;5.72;;;4.68;;
74369;SDS011;62805;44.644;10.942;2022-08-11T03:19:56;7.32;;;4.47;;
74369;SDS011;62805;44.644;10.942;2022-08-11T03:31:05;5.43;;;3.63;;
74369;SDS011;62805;44.644;10.942;2022-08-11T03:33:57;5.75;;;3.60;;
74369;SDS011;62805;44.644;10.942;2022-08-11T03:39:43;6.43;;;3.97;;
74369;SDS011;62805;44.644;10.942;2022-08-11T03:42:32;6.00;;;4.22;;
74369;SDS011;62805;44.644;10.942;2022-08-11T04:15:22;7.85;;;3.33;;
74369;SDS011;62805;44.644;10.942;2022-08-11T04:29:16;8.68;;;3.10;;
74369;SDS011;62805;44.644;10.942;2022-08-11T04:49:49;36.97;;;5.40;;
74369;SDS011;62805;44.644;10.942;2022-08-11T04:53:01;18.58;;;3.20;;
74369;SDS011;62805;44.644;10.942;2022-08-11T05:07:44;5.38;;;2.00;;
74369;SDS011;62805;44.644;10.942;2022-08-11T05:10:47;8.25;;;2.08;;
74369;SDS011;62805;44.644;10.942;2022-08-11T05:13:33;4.40;;;1.92;;
74369;SDS011;62805;44.644;10.942;2022-08-11T05:16:24;5.30;;;1.95;;
74369;SDS011;62805;44.644;10.942;2022-08-11T05:19:15;5.10;;;2.40;;
74369;SDS011;62805;44.644;10.942;2022-08-11T05:21:59;5.10;;;2.08;;
74369;SDS011;62805;44.644;10.942;2022-08-11T05:27:35;11.95;;;2.40;;
74369;SDS011;62805;44.644;10.942;2022-08-11T05:30:27;5.63;;;2.42;;
74369;SDS011;62805;44.644;10.942;2022-08-11T05:33:29;5.47;;;2.42;;
74369;SDS011;62805;44.644;10.942;2022-08-11T05:36:27;4.72;;;2.45;;
74369;SDS011;62805;44.644;10.942;2022-08-11T05:38:58;5.97;;;2.50;;
74369;SDS011;62805;44.644;10.942;2022-08-11T05:41:45;6.65;;;2.42;;
74369;SDS011;62805;44.644;10.942;2022-08-11T05:47:21;6.30;;;2.17;;
74369;SDS011;62805;44.644;10.942;2022-08-11T05:50:12;6.53;;;2.45;;
74369;SDS011;62805;44.644;10.942;2022-08-11T05:52:56;6.57;;;2.40;;
74369;SDS011;62805;44.644;10.942;2022-08-11T05:55:41;6.63;;;2.50;;
74369;SDS011;62805;44.644;10.942;2022-08-11T05:58:26;6.07;;;2.20;;
74369;SDS011;62805;44.644;10.942;2022-08-11T06:00:57;5.40;;;2.42;;
74369;SDS011;62805;44.644;10.942;2022-08-11T06:03:27;5.93;;;2.47;;
74369;SDS011;62805;44.644;10.942;2022-08-11T06:05:53;4.25;;;2.40;;
74369;SDS011;62805;44.644;10.942;2022-08-11T06:08:32;7.03;;;2.50;;
74369;SDS011;62805;44.644;10.942;2022-08-11T06:13:28;5.00;;;2.75;;
74369;SDS011;62805;44.644;10.942;2022-08-11T06:15:54;7.45;;;2.58;;
74369;SDS011;62805;44.644;10.942;2022-08-11T06:18:20;4.95;;;2.40;;
74369;SDS011;62805;44.644;10.942;2022-08-11T06:20:50;7.32;;;2.53;;
74369;SDS011;62805;44.644;10.942;2022-08-11T06:23:20;10.45;;;2.60;;
74369;SDS011;62805;44.644;10.942;2022-08-11T06:25:47;4.20;;;2.40;;
74369;SDS011;62805;44.644;10.942;2022-08-11T06:28:14;4.35;;;1.95;;
74369;SDS011;62805;44.644;10.942;2022-08-11T06:30:41;5.25;;;2.50;;
74369;SDS011;62805;44.644;10.942;2022-08-11T06:33:12;5.57;;;2.40;;
74369;SDS011;62805;44.644;10.942;2022-08-11T06:35:52;8.95;;;2.90;;
74369;SDS011;62805;44.644;10.942;2022-08-11T06:40:57;6.75;;;2.40;;
74369;SDS011;62805;44.644;10.942;2022-08-11T06:46:35;6.07;;;2.53;;
74369;SDS011;62805;44.644;10.942;2022-08-11T06:49:06;7.85;;;2.60;;
74369;SDS011;62805;44.644;10.942;2022-08-11T06:51:53;4.35;;;2.22;;
74369;SDS011;62805;44.644;10.942;2022-08-11T06:54:20;9.70;;;2.42;;
74369;SDS011;62805;44.644;10.942;2022-08-11T06:56:46;8.70;;;2.30;;
74369;SDS011;62805;44.644;10.942;2022-08-11T06:59:31;4.38;;;2.28;;
74369;SDS011;62805;44.644;10.942;2022-08-11T07:02:19;6.43;;;2.30;;
74369;SDS011;62805;44.644;10.942;2022-08-11T07:04:58;4.68;;;2.30;;
74369;SDS011;62805;44.644;10.942;2022-08-11T07:14:06;5.30;;;1.83;;
74369;SDS011;62805;44.644;10.942;2022-08-11T07:16:51;4.95;;;2.20;;
74369;SDS011;62805;44.644;10.942;2022-08-11T07:19:21;6.75;;;2.30;;
74369;SDS011;62805;44.644;10.942;2022-08-11T07:22:07;5.60;;;2.20;;
74369;SDS011;62805;44.644;10.942;2022-08-11T07:25:10;4.25;;;1.98;;
74369;SDS011;62805;44.644;10.942;2022-08-11T07:28:06;7.72;;;2.35;;
74369;SDS011;62805;44.644;10.942;2022-08-11T07:30:54;3.97;;;2.13;;
74369;SDS011;62805;44.644;10.942;2022-08-11T07:33:25;3.58;;;1.63;;
74369;SDS011;62805;44.644;10.942;2022-08-11T07:35:56;4.50;;;1.92;;
74369;SDS011;62805;44.644;10.942;2022-08-11T07:38:22;7.40;;;2.80;;
